sensor_id;sensor_type;location;lat;lon;timestamp;pressure;altitude;pressure_sealevel;temperature;humidity
7760;BME280;3924;48.830;9.262;2023-04-02T00:08:04;97809.72;;;8.86;76.77
7760;BME280;3924;48.830;9.262;2023-04-02T00:10:38;97811.59;;;8.85;76.68
7760;BME280;3924;48.830;9.262;2023-04-02T00:15:39;97820.31;;;8.82;76.50
7760;BME280;3924;48.830;9.262;2023-04-02T00:18:08;97813.63;;;8.80;76.45
7760;BME280;3924;48.830;9.262;2023-04-02T00:20:36;97822.84;;;8.79;76.61
7760;BME280;3924;48.830;9.262;2023-04-02T00:23:06;97820.63;;;8.81;76.61
7760;BME280;3924;48.830;9.262;2023-04-02T00:25:37;97822.84;;;8.79;76.63
7760;BME280;3924;48.830;9.262;2023-04-02T00:28:12;97834.94;;;8.81;76.70
7760;BME280;3924;48.830;9.262;2023-04-02T00:30:48;97834.94;;;8.81;76.70
7760;BME280;3924;48.830;9.262;2023-04-02T00:33:19;97830.94;;;8.79;76.63
7760;BME280;3924;48.830;9.262;2023-04-02T00:35:47;97832.53;;;8.80;76.56
7760;BME280;3924;48.830;9.262;2023-04-02T00:38:23;97830.94;;;8.79;76.75
7760;BME280;3924;48.830;9.262;2023-04-02T00:40:53;97832.00;;;8.77;76.70
7760;BME280;3924;48.830;9.262;2023-04-02T00:43:23;97836.75;;;8.72;76.50
7760;BME280;3924;48.830;9.262;2023-04-02T00:45:54;97844.84;;;8.72;76.93
7760;BME280;3924;48.830;9.262;2023-04-02T00:51:00;97839.03;;;8.65;76.99
7760;BME280;3924;48.830;9.262;2023-04-02T00:53:35;97833.63;;;8.65;76.82
7760;BME280;3924;48.830;9.262;2023-04-02T00:56:02;97837.41;;;8.64;77.12
7760;BME280;3924;48.830;9.262;2023-04-02T00:58:37;97844.44;;;8.65;76.91
7760;BME280;3924;48.830;9.262;2023-04-02T01:01:14;97842.00;;;8.63;77.15
7760;BME280;3924;48.830;9.262;2023-04-02T01:03:42;97837.72;;;8.62;76.94
7760;BME280;3924;48.830;9.262;2023-04-02T01:06:15;97843.09;;;8.62;76.94
7760;BME280;3924;48.830;9.262;2023-04-02T01:14:32;97846.59;;;8.63;76.97
7760;BME280;3924;48.830;9.262;2023-04-02T01:17:21;97853.59;;;8.64;77.08
7760;BME280;3924;48.830;9.262;2023-04-02T01:20:48;97852.53;;;8.65;77.02
7760;BME280;3924;48.830;9.262;2023-04-02T01:26:03;97859.53;;;8.66;76.94
7760;BME280;3924;48.830;9.262;2023-04-02T01:28:42;97855.25;;;8.65;76.99
7760;BME280;3924;48.830;9.262;2023-04-02T01:31:14;97856.84;;;8.66;76.81
7760;BME280;3924;48.830;9.262;2023-04-02T01:33:41;97858.94;;;8.69;76.94
7760;BME280;3924;48.830;9.262;2023-04-02T01:36:18;97859.25;;;8.67;76.93
7760;BME280;3924;48.830;9.262;2023-04-02T01:39:07;97863.03;;;8.66;76.99
7760;BME280;3924;48.830;9.262;2023-04-02T01:41:47;97859.25;;;8.67;77.10
7760;BME280;3924;48.830;9.262;2023-04-02T01:44:22;97867.03;;;8.69;76.90
7760;BME280;3924;48.830;9.262;2023-04-02T01:46:51;97870.84;;;8.68;76.85
7760;BME280;3924;48.830;9.262;2023-04-02T01:49:20;97870.84;;;8.68;77.11
7760;BME280;3924;48.830;9.262;2023-04-02T01:51:53;97868.16;;;8.68;76.99
7760;BME280;3924;48.830;9.262;2023-04-02T01:54:22;97875.44;;;8.67;77.02
7760;BME280;3924;48.830;9.262;2023-04-02T01:56:50;97885.66;;;8.70;77.14
7760;BME280;3924;48.830;9.262;2023-04-02T01:59:19;97877.84;;;8.69;77.10
7760;BME280;3924;48.830;9.262;2023-04-02T02:02:03;97870.25;;;8.71;77.07
7760;BME280;3924;48.830;9.262;2023-04-02T02:04:31;97876.97;;;8.73;77.09
7760;BME280;3924;48.830;9.262;2023-04-02T02:06:59;97875.06;;;8.74;77.01
7760;BME280;3924;48.830;9.262;2023-04-02T02:09:29;97878.25;;;8.76;76.96
7760;BME280;3924;48.830;9.262;2023-04-02T02:11:58;97889.56;;;8.78;77.08
7760;BME280;3924;48.830;9.262;2023-04-02T02:14:26;97877.97;;;8.77;77.18
7760;BME280;3924;48.830;9.262;2023-04-02T02:16:56;97890.66;;;8.77;76.91
7760;BME280;3924;48.830;9.262;2023-04-02T02:19:28;97885.78;;;8.79;76.88
7760;BME280;3924;48.830;9.262;2023-04-02T02:24:53;97891.69;;;8.81;76.87
7760;BME280;3924;48.830;9.262;2023-04-02T02:30:00;97896.50;;;8.84;76.99
7760;BME280;3924;48.830;9.262;2023-04-02T02:32:30;97903.00;;;8.83;76.72
7760;BME280;3924;48.830;9.262;2023-04-02T02:35:42;97894.09;;;8.83;76.79
7760;BME280;3924;48.830;9.262;2023-04-02T02:44:12;97912.72;;;8.84;76.81
7760;BME280;3924;48.830;9.262;2023-04-02T02:46:51;97914.31;;;8.85;76.86
7760;BME280;3924;48.830;9.262;2023-04-02T02:49:25;97911.34;;;8.87;76.87
7760;BME280;3924;48.830;9.262;2023-04-02T02:52:12;97915.13;;;8.86;76.69
7760;BME280;3924;48.830;9.262;2023-04-02T02:54:41;97917.53;;;8.87;76.91
7760;BME280;3924;48.830;9.262;2023-04-02T02:57:13;97910.53;;;8.86;76.76
7760;BME280;3924;48.830;9.262;2023-04-02T02:59:41;97908.91;;;8.85;76.82
7760;BME280;3924;48.830;9.262;2023-04-02T03:02:08;97912.72;;;8.84;76.74
7760;BME280;3924;48.830;9.262;2023-04-02T03:04:35;97918.13;;;8.84;76.71
7760;BME280;3924;48.830;9.262;2023-04-02T03:07:03;97916.50;;;8.83;76.81
7760;BME280;3924;48.830;9.262;2023-04-02T03:12:37;97927.31;;;8.83;76.65
7760;BME280;3924;48.830;9.262;2023-04-02T03:15:27;97921.13;;;8.83;76.81
7760;BME280;3924;48.830;9.262;2023-04-02T03:18:09;97924.13;;;8.81;76.78
7760;BME280;3924;48.830;9.262;2023-04-02T03:20:44;97925.22;;;8.80;76.81
7760;BME280;3924;48.830;9.262;2023-04-02T03:23:34;97934.94;;;8.81;76.84
7760;BME280;3924;48.830;9.262;2023-04-02T03:26:18;97942.25;;;8.81;76.82
7760;BME280;3924;48.830;9.262;2023-04-02T03:28:54;97945.25;;;8.79;76.97
7760;BME280;3924;48.830;9.262;2023-04-02T03:31:31;97947.16;;;8.79;76.80
7760;BME280;3924;48.830;9.262;2023-04-02T03:34:10;97947.16;;;8.79;76.75
7760;BME280;3924;48.830;9.262;2023-04-02T03:36:51;97949.84;;;8.79;76.95
7760;BME280;3924;48.830;9.262;2023-04-02T03:42:14;97957.97;;;8.79;76.85
7760;BME280;3924;48.830;9.262;2023-04-02T03:50:09;97955.84;;;8.75;76.98
7760;BME280;3924;48.830;9.262;2023-04-02T03:52:37;97964.25;;;8.74;76.95
7760;BME280;3924;48.830;9.262;2023-04-02T03:55:14;97968.53;;;8.75;76.96
7760;BME280;3924;48.830;9.262;2023-04-02T03:57:56;97966.94;;;8.74;77.04
7760;BME280;3924;48.830;9.262;2023-04-02T04:00:34;97970.44;;;8.74;77.02
7760;BME280;3924;48.830;9.262;2023-04-02T04:06:28;97973.16;;;8.74;76.97
7760;BME280;3924;48.830;9.262;2023-04-02T04:09:05;97973.94;;;8.75;77.15
7760;BME280;3924;48.830;9.262;2023-04-02T04:11:47;97976.16;;;8.73;77.09
7760;BME280;3924;48.830;9.262;2023-04-02T04:14:30;97979.66;;;8.73;77.12
7760;BME280;3924;48.830;9.262;2023-04-02T04:19:45;97986.97;;;8.73;77.18
7760;BME280;3924;48.830;9.262;2023-04-02T04:22:17;97990.75;;;8.72;77.01
7760;BME280;3924;48.830;9.262;2023-04-02T04:24:48;97989.13;;;8.71;77.13
7760;BME280;3924;48.830;9.262;2023-04-02T04:27:42;98001.56;;;8.72;77.21
7760;BME280;3924;48.830;9.262;2023-04-02T04:36:25;98005.34;;;8.71;77.13
7760;BME280;3924;48.830;9.262;2023-04-02T04:39:11;98012.38;;;8.72;77.34
7760;BME280;3924;48.830;9.262;2023-04-02T04:41:45;98013.97;;;8.73;77.33
7760;BME280;3924;48.830;9.262;2023-04-02T04:44:33;98022.09;;;8.73;77.27
7760;BME280;3924;48.830;9.262;2023-04-02T04:47:31;98026.69;;;8.72;77.29
7760;BME280;3924;48.830;9.262;2023-04-02T04:50:31;98031.31;;;8.72;77.42
7760;BME280;3924;48.830;9.262;2023-04-02T04:53:12;98035.88;;;8.71;77.44
7760;BME280;3924;48.830;9.262;2023-04-02T04:55:47;98032.38;;;8.71;77.27
7760;BME280;3924;48.830;9.262;2023-04-02T04:58:23;98032.38;;;8.71;77.28
7760;BME280;3924;48.830;9.262;2023-04-02T05:03:45;98043.19;;;8.71;77.65
7760;BME280;3924;48.830;9.262;2023-04-02T05:06:23;98036.97;;;8.70;77.55
7760;BME280;3924;48.830;9.262;2023-04-02T05:08:54;98048.59;;;8.71;77.69
7760;BME280;3924;48.830;9.262;2023-04-02T05:11:30;98046.97;;;8.70;77.59
7760;BME280;3924;48.830;9.262;2023-04-02T05:14:18;98046.97;;;8.70;77.58
7760;BME280;3924;48.830;9.262;2023-04-02T05:19:46;98054.59;;;8.68;77.52
7760;BME280;3924;48.830;9.262;2023-04-02T05:25:19;98061.59;;;8.69;77.70
7760;BME280;3924;48.830;9.262;2023-04-02T05:30:37;98063.19;;;8.70;77.60
7760;BME280;3924;48.830;9.262;2023-04-02T05:33:20;98075.59;;;8.71;77.69
7760;BME280;3924;48.830;9.262;2023-04-02T05:35:52;98072.63;;;8.72;77.71
7760;BME280;3924;48.830;9.262;2023-04-02T05:38:24;98073.44;;;8.73;77.56
7760;BME280;3924;48.830;9.262;2023-04-02T05:41:22;98076.63;;;8.75;77.68
7760;BME280;3924;48.830;9.262;2023-04-02T05:46:46;98086.06;;;8.77;77.67
7760;BME280;3924;48.830;9.262;2023-04-02T05:49:32;98084.16;;;8.78;77.68
7760;BME280;3924;48.830;9.262;2023-04-02T05:52:03;98092.25;;;8.78;77.65
7760;BME280;3924;48.830;9.262;2023-04-02T05:54:37;98093.59;;;8.81;77.79
7760;BME280;3924;48.830;9.262;2023-04-02T05:57:12;98091.69;;;8.81;77.48
7760;BME280;3924;48.830;9.262;2023-04-02T05:59:43;98094.09;;;8.83;77.67
7760;BME280;3924;48.830;9.262;2023-04-02T06:05:04;98109.50;;;8.82;77.77
7760;BME280;3924;48.830;9.262;2023-04-02T06:07:47;98106.50;;;8.84;77.69
7760;BME280;3924;48.830;9.262;2023-04-02T06:10:23;98113.50;;;8.85;77.92
7760;BME280;3924;48.830;9.262;2023-04-02T06:12:57;98117.56;;;8.87;77.87
7760;BME280;3924;48.830;9.262;2023-04-02T06:15:30;98113.75;;;8.88;78.04
7760;BME280;3924;48.830;9.262;2023-04-02T06:18:17;98120.75;;;8.89;77.87
7760;BME280;3924;48.830;9.262;2023-04-02T06:20:45;98123.97;;;8.91;77.90
7760;BME280;3924;48.830;9.262;2023-04-02T06:23:18;98121.78;;;8.93;78.03
7760;BME280;3924;48.830;9.262;2023-04-02T06:25:54;98127.41;;;8.97;77.90
7760;BME280;3924;48.830;9.262;2023-04-02T06:28:32;98138.44;;;9.00;77.95
7760;BME280;3924;48.830;9.262;2023-04-02T06:31:07;98141.06;;;9.05;77.87
7760;BME280;3924;48.830;9.262;2023-04-02T06:33:35;98142.69;;;9.07;77.89
7760;BME280;3924;48.830;9.262;2023-04-02T06:36:03;98147.81;;;9.08;77.92
7760;BME280;3924;48.830;9.262;2023-04-02T06:38:30;98157.53;;;9.09;77.96
7760;BME280;3924;48.830;9.262;2023-04-02T06:41:00;98149.91;;;9.11;77.90
7760;BME280;3924;48.830;9.262;2023-04-02T06:43:41;98153.16;;;9.13;77.89
7760;BME280;3924;48.830;9.262;2023-04-02T06:46:17;98157.66;;;9.18;78.01
7760;BME280;3924;48.830;9.262;2023-04-02T06:48:47;98163.81;;;9.23;77.93
7760;BME280;3924;48.830;9.262;2023-04-02T06:51:18;98168.84;;;9.30;77.77
7760;BME280;3924;48.830;9.262;2023-04-02T06:53:47;98172.03;;;9.32;77.76
7760;BME280;3924;48.830;9.262;2023-04-02T06:56:46;98175.78;;;9.36;77.74
7760;BME280;3924;48.830;9.262;2023-04-02T06:59:15;98181.69;;;9.38;77.72
7760;BME280;3924;48.830;9.262;2023-04-02T07:02:04;98195.75;;;9.40;77.69
7760;BME280;3924;48.830;9.262;2023-04-02T07:04:45;98198.47;;;9.40;77.64
7760;BME280;3924;48.830;9.262;2023-04-02T07:07:22;98198.97;;;9.42;77.59
7760;BME280;3924;48.830;9.262;2023-04-02T07:10:06;98202.97;;;9.45;77.67
7760;BME280;3924;48.830;9.262;2023-04-02T07:13:16;98206.47;;;9.45;77.89
7760;BME280;3924;48.830;9.262;2023-04-02T07:15:57;98197.56;;;9.45;77.76
7760;BME280;3924;48.830;9.262;2023-04-02T07:18:51;98203.78;;;9.45;77.74
7760;BME280;3924;48.830;9.262;2023-04-02T07:21:31;98207.00;;;9.47;77.79
7760;BME280;3924;48.830;9.262;2023-04-02T07:24:05;98215.63;;;9.49;77.84
7760;BME280;3924;48.830;9.262;2023-04-02T07:26:47;98219.94;;;9.50;77.77
7760;BME280;3924;48.830;9.262;2023-04-02T07:29:53;98223.38;;;9.56;77.67
7760;BME280;3924;48.830;9.262;2023-04-02T07:32:29;98228.72;;;9.61;77.64
7760;BME280;3924;48.830;9.262;2023-04-02T07:35:05;98228.41;;;9.63;77.61
7760;BME280;3924;48.830;9.262;2023-04-02T07:37:40;98231.13;;;9.63;77.58
7760;BME280;3924;48.830;9.262;2023-04-02T07:40:25;98239.19;;;9.68;77.52
7760;BME280;3924;48.830;9.262;2023-04-02T07:43:09;98252.03;;;9.76;77.41
7760;BME280;3924;48.830;9.262;2023-04-02T07:45:37;98245.81;;;9.75;77.39
7760;BME280;3924;48.830;9.262;2023-04-02T07:48:21;98253.63;;;9.77;77.38
7760;BME280;3924;48.830;9.262;2023-04-02T07:51:26;98256.28;;;9.82;77.31
7760;BME280;3924;48.830;9.262;2023-04-02T07:54:09;98263.28;;;9.83;77.31
7760;BME280;3924;48.830;9.262;2023-04-02T07:57:00;98257.34;;;9.81;77.25
7760;BME280;3924;48.830;9.262;2023-04-02T07:59:38;98262.50;;;9.82;77.30
7760;BME280;3924;48.830;9.262;2023-04-02T08:02:04;98272.72;;;9.85;77.23
7760;BME280;3924;48.830;9.262;2023-04-02T08:04:31;98276.81;;;9.83;77.09
7760;BME280;3924;48.830;9.262;2023-04-02T08:06:57;98275.13;;;9.87;77.27
7760;BME280;3924;48.830;9.262;2023-04-02T08:09:24;98277.75;;;9.92;77.13
7760;BME280;3924;48.830;9.262;2023-04-02T08:11:51;98290.72;;;9.95;76.84
7760;BME280;3924;48.830;9.262;2023-04-02T08:14:18;98282.06;;;9.93;76.96
7760;BME280;3924;48.830;9.262;2023-04-02T08:19:11;98288.09;;;9.90;76.93
7760;BME280;3924;48.830;9.262;2023-04-02T08:21:37;98299.41;;;9.92;76.94
7760;BME280;3924;48.830;9.262;2023-04-02T08:24:04;98297.81;;;9.91;77.03
7760;BME280;3924;48.830;9.262;2023-04-02T08:26:31;98300.22;;;9.93;76.93
7760;BME280;3924;48.830;9.262;2023-04-02T08:28:57;98298.84;;;9.95;76.75
7760;BME280;3924;48.830;9.262;2023-04-02T08:31:23;98300.94;;;9.98;76.82
7760;BME280;3924;48.830;9.262;2023-04-02T08:33:51;98312.88;;;9.97;76.82
7760;BME280;3924;48.830;9.262;2023-04-02T08:36:31;98318.81;;;9.99;76.69
7760;BME280;3924;48.830;9.262;2023-04-02T08:38:59;98315.59;;;9.97;76.85
7760;BME280;3924;48.830;9.262;2023-04-02T08:41:26;98321.75;;;10.03;76.72
7760;BME280;3924;48.830;9.262;2023-04-02T08:44:02;98325.81;;;10.00;76.59
7760;BME280;3924;48.830;9.262;2023-04-02T08:46:44;98327.16;;;10.03;76.80
7760;BME280;3924;48.830;9.262;2023-04-02T08:49:14;98330.88;;;10.07;76.57
7760;BME280;3924;48.830;9.262;2023-04-02T08:51:42;98334.91;;;10.09;76.67
7760;BME280;3924;48.830;9.262;2023-04-02T08:54:32;98338.94;;;10.12;76.53
7760;BME280;3924;48.830;9.262;2023-04-02T09:02:56;98346.47;;;10.34;76.23
7760;BME280;3924;48.830;9.262;2023-04-02T09:05:27;98354.00;;;10.37;76.28
7760;BME280;3924;48.830;9.262;2023-04-02T09:07:58;98358.25;;;10.43;76.11
7760;BME280;3924;48.830;9.262;2023-04-02T09:10:42;98362.38;;;10.54;76.09
7760;BME280;3924;48.830;9.262;2023-04-02T09:13:26;98360.69;;;10.58;75.98
7760;BME280;3924;48.830;9.262;2023-04-02T09:16:02;98374.16;;;10.63;75.86
7760;BME280;3924;48.830;9.262;2023-04-02T09:18:32;98370.38;;;10.64;75.83
7760;BME280;3924;48.830;9.262;2023-04-02T09:21:03;98368.56;;;10.74;75.75
7760;BME280;3924;48.830;9.262;2023-04-02T09:23:38;98369.69;;;10.86;75.59
7760;BME280;3924;48.830;9.262;2023-04-02T09:26:19;98362.69;;;10.99;75.17
7760;BME280;3924;48.830;9.262;2023-04-02T09:28:51;98374.13;;;11.10;75.21
7760;BME280;3924;48.830;9.262;2023-04-02T09:31:35;98369.44;;;11.15;75.16
7760;BME280;3924;48.830;9.262;2023-04-02T09:34:30;98382.91;;;11.34;74.69
7760;BME280;3924;48.830;9.262;2023-04-02T09:37:18;98383.09;;;11.51;74.58
7760;BME280;3924;48.830;9.262;2023-04-02T09:39:46;98378.44;;;11.66;74.37
7760;BME280;3924;48.830;9.262;2023-04-02T09:42:29;98393.13;;;11.78;74.00
7760;BME280;3924;48.830;9.262;2023-04-02T09:45:21;98396.78;;;11.88;73.84
7760;BME280;3924;48.830;9.262;2023-04-02T09:47:49;98393.25;;;11.73;73.99
7760;BME280;3924;48.830;9.262;2023-04-02T09:52:47;98400.16;;;11.79;73.96
7760;BME280;3924;48.830;9.262;2023-04-02T09:57:45;98404.31;;;11.91;73.75
7760;BME280;3924;48.830;9.262;2023-04-02T10:05:39;98409.66;;;12.18;73.25
7760;BME280;3924;48.830;9.262;2023-04-02T10:08:25;98415.00;;;12.23;72.92
7760;BME280;3924;48.830;9.262;2023-04-02T10:10:57;98415.91;;;12.19;73.06
7760;BME280;3924;48.830;9.262;2023-04-02T10:18:45;98425.63;;;12.33;72.69
7760;BME280;3924;48.830;9.262;2023-04-02T10:21:34;98423.50;;;12.08;72.83
7760;BME280;3924;48.830;9.262;2023-04-02T10:24:11;98431.13;;;12.06;72.97
7760;BME280;3924;48.830;9.262;2023-04-02T10:29:50;98429.78;;;12.31;72.50
7760;BME280;3924;48.830;9.262;2023-04-02T10:32:35;98429.03;;;12.39;72.08
7760;BME280;3924;48.830;9.262;2023-04-02T10:40:18;98435.47;;;12.43;71.89
7760;BME280;3924;48.830;9.262;2023-04-02T10:43:24;98441.13;;;12.33;72.21
7760;BME280;3924;48.830;9.262;2023-04-02T10:46:00;98440.97;;;12.29;72.21
7760;BME280;3924;48.830;9.262;2023-04-02T10:51:28;98455.28;;;11.94;72.61
7760;BME280;3924;48.830;9.262;2023-04-02T10:56:31;98453.59;;;11.84;72.98
7760;BME280;3924;48.830;9.262;2023-04-02T10:59:18;98467.50;;;11.83;72.83
7760;BME280;3924;48.830;9.262;2023-04-02T11:01:47;98461.13;;;11.73;72.92
7760;BME280;3924;48.830;9.262;2023-04-02T11:04:36;98465.66;;;11.64;72.94
7760;BME280;3924;48.830;9.262;2023-04-02T11:07:14;98469.97;;;11.65;73.01
7760;BME280;3924;48.830;9.262;2023-04-02T11:09:46;98476.72;;;11.54;73.15
7760;BME280;3924;48.830;9.262;2023-04-02T11:12:23;98476.81;;;11.49;73.03
7760;BME280;3924;48.830;9.262;2023-04-02T11:14:51;98473.47;;;11.52;73.27
7760;BME280;3924;48.830;9.262;2023-04-02T11:17:20;98481.53;;;11.57;73.10
7760;BME280;3924;48.830;9.262;2023-04-02T11:19:47;98482.84;;;11.60;73.19
7760;BME280;3924;48.830;9.262;2023-04-02T11:22:16;98483.44;;;11.57;73.06
7760;BME280;3924;48.830;9.262;2023-04-02T11:24:46;98491.50;;;11.48;73.19
7760;BME280;3924;48.830;9.262;2023-04-02T11:37:39;98487.44;;;11.32;73.19
7760;BME280;3924;48.830;9.262;2023-04-02T11:42:41;98500.09;;;11.36;73.21
7760;BME280;3924;48.830;9.262;2023-04-02T11:50:38;98503.47;;;11.47;72.99
7760;BME280;3924;48.830;9.262;2023-04-02T11:55:44;98499.75;;;11.70;72.27
7760;BME280;3924;48.830;9.262;2023-04-02T12:01:30;98506.81;;;11.99;71.72
7760;BME280;3924;48.830;9.262;2023-04-02T12:09:54;98511.25;;;12.22;71.12
7760;BME280;3924;48.830;9.262;2023-04-02T12:14:54;98516.94;;;12.35;70.71
7760;BME280;3924;48.830;9.262;2023-04-02T12:20:17;98515.72;;;12.41;70.66
7760;BME280;3924;48.830;9.262;2023-04-02T12:22:51;98526.72;;;12.36;70.68
7760;BME280;3924;48.830;9.262;2023-04-02T12:30:40;98526.53;;;12.04;71.18
7760;BME280;3924;48.830;9.262;2023-04-02T12:33:15;98525.94;;;11.94;71.47
7760;BME280;3924;48.830;9.262;2023-04-02T12:35:42;98538.63;;;11.85;71.61
7760;BME280;3924;48.830;9.262;2023-04-02T12:38:19;98532.56;;;11.74;71.68
7760;BME280;3924;48.830;9.262;2023-04-02T12:40:53;98540.00;;;11.68;71.83
7760;BME280;3924;48.830;9.262;2023-04-02T12:43:28;98538.97;;;11.64;71.92
7760;BME280;3924;48.830;9.262;2023-04-02T12:45:58;98548.53;;;11.62;72.05
7760;BME280;3924;48.830;9.262;2023-04-02T12:48:26;98541.75;;;11.59;72.12
7760;BME280;3924;48.830;9.262;2023-04-02T12:50:54;98546.38;;;11.59;72.11
7760;BME280;3924;48.830;9.262;2023-04-02T12:53:25;98551.63;;;11.55;72.18
7760;BME280;3924;48.830;9.262;2023-04-02T12:55:54;98553.22;;;11.56;72.42
7760;BME280;3924;48.830;9.262;2023-04-02T13:01:17;98563.44;;;11.45;72.46
7760;BME280;3924;48.830;9.262;2023-04-02T13:06:29;98564.88;;;11.43;72.82
7760;BME280;3924;48.830;9.262;2023-04-02T13:09:00;98560.25;;;11.43;72.67
7760;BME280;3924;48.830;9.262;2023-04-02T13:11:34;98567.09;;;11.41;72.68
7760;BME280;3924;48.830;9.262;2023-04-02T13:14:04;98570.28;;;11.43;72.78
7760;BME280;3924;48.830;9.262;2023-04-02T13:16:37;98564.78;;;11.48;72.58
7760;BME280;3924;48.830;9.262;2023-04-02T13:19:20;98573.72;;;11.48;72.33
7760;BME280;3924;48.830;9.262;2023-04-02T13:21:48;98573.81;;;11.43;72.60
7760;BME280;3924;48.830;9.262;2023-04-02T13:24:23;98579.53;;;11.42;72.82
7760;BME280;3924;48.830;9.262;2023-04-02T13:26:54;98576.84;;;11.42;72.71
7760;BME280;3924;48.830;9.262;2023-04-02T13:29:30;98583.38;;;11.41;72.72
7760;BME280;3924;48.830;9.262;2023-04-02T13:32:01;98586.59;;;11.43;72.98
7760;BME280;3924;48.830;9.262;2023-04-02T13:34:29;98589.22;;;11.48;72.94
7760;BME280;3924;48.830;9.262;2023-04-02T13:36:56;98581.97;;;11.43;73.10
7760;BME280;3924;48.830;9.262;2023-04-02T13:39:25;98589.69;;;11.36;72.97
7760;BME280;3924;48.830;9.262;2023-04-02T13:41:57;98596.91;;;11.27;73.36
7760;BME280;3924;48.830;9.262;2023-04-02T13:44:26;98601.16;;;11.14;73.53
7760;BME280;3924;48.830;9.262;2023-04-02T13:46:54;98601.09;;;11.01;73.99
7760;BME280;3924;48.830;9.262;2023-04-02T13:49:22;98607.81;;;11.03;74.22
7760;BME280;3924;48.830;9.262;2023-04-02T13:51:54;98606.72;;;11.04;74.22
7760;BME280;3924;48.830;9.262;2023-04-02T13:56:51;98616.34;;;10.78;74.78
7760;BME280;3924;48.830;9.262;2023-04-02T13:59:17;98623.19;;;10.70;75.17
7760;BME280;3924;48.830;9.262;2023-04-02T14:01:45;98617.13;;;10.59;75.39
7760;BME280;3924;48.830;9.262;2023-04-02T14:04:18;98629.13;;;10.53;75.69
7760;BME280;3924;48.830;9.262;2023-04-02T14:12:58;98636.50;;;10.48;76.32
7760;BME280;3924;48.830;9.262;2023-04-02T14:16:02;98637.75;;;10.55;76.09
7760;BME280;3924;48.830;9.262;2023-04-02T14:18:46;98642.63;;;10.58;76.13
7760;BME280;3924;48.830;9.262;2023-04-02T14:24:15;98646.53;;;10.47;76.57
7760;BME280;3924;48.830;9.262;2023-04-02T14:30:08;98672.25;;;10.50;76.77
7760;BME280;3924;48.830;9.262;2023-04-02T14:32:51;98672.25;;;10.50;76.86
7760;BME280;3924;48.830;9.262;2023-04-02T14:38:36;98666.63;;;10.46;77.00
7760;BME280;3924;48.830;9.262;2023-04-02T14:41:16;98673.13;;;10.45;77.12
7760;BME280;3924;48.830;9.262;2023-04-02T14:43:56;98679.06;;;10.47;77.31
7760;BME280;3924;48.830;9.262;2023-04-02T14:46:30;98682.03;;;10.51;77.05
7760;BME280;3924;48.830;9.262;2023-04-02T14:49:34;98671.44;;;10.49;77.21
7760;BME280;3924;48.830;9.262;2023-04-02T14:52:10;98675.25;;;10.48;77.34
7760;BME280;3924;48.830;9.262;2023-04-02T14:54:58;98679.56;;;10.49;77.35
7760;BME280;3924;48.830;9.262;2023-04-02T14:57:30;98692.63;;;10.47;77.35
7760;BME280;3924;48.830;9.262;2023-04-02T15:02:46;98692.22;;;10.35;77.61
7760;BME280;3924;48.830;9.262;2023-04-02T15:08:25;98694.53;;;10.18;78.27
7760;BME280;3924;48.830;9.262;2023-04-02T15:13:44;98706.50;;;10.11;78.12
7760;BME280;3924;48.830;9.262;2023-04-02T15:16:21;98708.16;;;10.07;78.37
7760;BME280;3924;48.830;9.262;2023-04-02T15:18:50;98707.34;;;10.07;78.38
7760;BME280;3924;48.830;9.262;2023-04-02T15:24:12;98715.16;;;9.84;78.80
7760;BME280;3924;48.830;9.262;2023-04-02T15:26:47;98725.22;;;9.79;79.02
7760;BME280;3924;48.830;9.262;2023-04-02T15:29:43;98720.41;;;9.71;79.05
7760;BME280;3924;48.830;9.262;2023-04-02T15:32:34;98732.34;;;9.65;79.32
7760;BME280;3924;48.830;9.262;2023-04-02T15:35:31;98734.00;;;9.60;79.46
7760;BME280;3924;48.830;9.262;2023-04-02T15:38:26;98733.25;;;9.55;79.45
7760;BME280;3924;48.830;9.262;2023-04-02T15:41:13;98743.81;;;9.51;79.61
7760;BME280;3924;48.830;9.262;2023-04-02T15:43:45;98749.25;;;9.46;79.48
7760;BME280;3924;48.830;9.262;2023-04-02T15:54:39;98760.97;;;9.31;79.77
7760;BME280;3924;48.830;9.262;2023-04-02T16:06:21;98784.28;;;9.22;80.20
7760;BME280;3924;48.830;9.262;2023-04-02T16:11:32;98789.44;;;9.19;80.17
7760;BME280;3924;48.830;9.262;2023-04-02T16:16:57;98797.59;;;9.09;80.19
7760;BME280;3924;48.830;9.262;2023-04-02T16:19:40;98800.03;;;9.05;80.21
7760;BME280;3924;48.830;9.262;2023-04-02T16:22:21;98802.50;;;9.01;80.39
7760;BME280;3924;48.830;9.262;2023-04-02T16:24:59;98807.38;;;8.99;80.26
7760;BME280;3924;48.830;9.262;2023-04-02T16:28:07;98813.84;;;8.98;80.29
7760;BME280;3924;48.830;9.262;2023-04-02T16:33:58;98821.97;;;8.98;80.30
7760;BME280;3924;48.830;9.262;2023-04-02T16:37:00;98821.72;;;8.95;80.07
7760;BME280;3924;48.830;9.262;2023-04-02T16:42:15;98836.06;;;8.90;80.33
7760;BME280;3924;48.830;9.262;2023-04-02T16:47:46;98838.75;;;8.85;80.36
7760;BME280;3924;48.830;9.262;2023-04-02T16:55:34;98859.34;;;8.71;80.09
7760;BME280;3924;48.830;9.262;2023-04-02T16:58:09;98860.97;;;8.62;80.41
7760;BME280;3924;48.830;9.262;2023-04-02T17:00:42;98868.56;;;8.60;80.44
7760;BME280;3924;48.830;9.262;2023-04-02T17:03:37;98865.56;;;8.56;80.45
7760;BME280;3924;48.830;9.262;2023-04-02T17:09:10;98879.91;;;8.46;80.31
7760;BME280;3924;48.830;9.262;2023-04-02T17:11:46;98895.59;;;8.39;80.48
7760;BME280;3924;48.830;9.262;2023-04-02T17:14:27;98884.50;;;8.36;80.50
7760;BME280;3924;48.830;9.262;2023-04-02T17:17:00;98902.03;;;8.33;80.50
7760;BME280;3924;48.830;9.262;2023-04-02T17:19:28;98900.13;;;8.29;80.48
7760;BME280;3924;48.830;9.262;2023-04-02T17:22:01;98912.00;;;8.28;80.47
7760;BME280;3924;48.830;9.262;2023-04-02T17:24:29;98916.06;;;8.25;80.27
7760;BME280;3924;48.830;9.262;2023-04-02T17:27:04;98914.97;;;8.21;80.50
7760;BME280;3924;48.830;9.262;2023-04-02T17:29:37;98924.16;;;8.20;80.47
7760;BME280;3924;48.830;9.262;2023-04-02T17:32:13;98928.47;;;8.16;80.50
7760;BME280;3924;48.830;9.262;2023-04-02T17:34:42;98938.19;;;8.12;80.29
7760;BME280;3924;48.830;9.262;2023-04-02T17:37:24;98949.50;;;8.04;80.52
7760;BME280;3924;48.830;9.262;2023-04-02T17:40:22;98959.22;;;8.05;80.20
7760;BME280;3924;48.830;9.262;2023-04-02T17:43:16;98962.72;;;8.00;80.53
7760;BME280;3924;48.830;9.262;2023-04-02T17:45:55;98959.22;;;8.00;80.29
7760;BME280;3924;48.830;9.262;2023-04-02T17:54:32;98975.84;;;7.71;80.57
7760;BME280;3924;48.830;9.262;2023-04-02T17:59:54;98999.03;;;7.62;80.52
7760;BME280;3924;48.830;9.262;2023-04-02T18:08:14;99011.94;;;7.60;80.48
7760;BME280;3924;48.830;9.262;2023-04-02T18:13:40;99025.88;;;7.47;80.36
7760;BME280;3924;48.830;9.262;2023-04-02T18:16:29;99025.88;;;7.42;80.54
7760;BME280;3924;48.830;9.262;2023-04-02T18:19:16;99033.13;;;7.41;80.56
7760;BME280;3924;48.830;9.262;2023-04-02T18:21:49;99042.88;;;7.42;80.37